Time;durP1;ratioP1;P1;durP2;ratioP2;P2;SDS_P1;SDS_P2;PMS_P1;PMS_P2;Temp;Humidity;BMP_temperature;BMP_pressure;BME280_temperature;BME280_humidity;BME280_pressure;Samples;Min_cycle;Max_cycle;Signal;HPM_P1;HPM_P2
2022/07/21 00:01:08;;;;;;;13.10;10.30;;;;;;;20.60;100.00;101695.41;5116528;28;20020;-70
2022/07/21 00:03:33;;;;;;;16.25;10.85;;;;;;;20.52;100.00;101699.06;5116960;28;20032;-70
2022/07/21 00:05:59;;;;;;;12.75;11.40;;;;;;;20.52;100.00;101688.38;5098510;28;20069;-70
2022/07/21 00:08:24;;;;;;;14.98;11.63;;;;;;;20.58;100.00;101691.88;5107275;28;20085;-70
2022/07/21 00:10:50;;;;;;;16.98;11.70;;;;;;;20.68;100.00;101688.19;5116510;28;20016;-70
2022/07/21 00:13:15;;;;;;;16.27;11.63;;;;;;;20.77;100.00;101688.13;5105745;28;20024;-70
2022/07/21 00:15:41;;;;;;;15.73;12.10;;;;;;;20.65;100.00;101673.06;5096035;28;20047;-69
2022/07/21 00:18:06;;;;;;;15.52;12.52;;;;;;;20.44;100.00;101675.97;5096095;28;20031;-69
2022/07/21 00:20:32;;;;;;;18.63;14.55;;;;;;;20.47;100.00;101679.53;5080584;28;20065;-70
2022/07/21 00:22:58;;;;;;;17.13;13.60;;;;;;;20.53;100.00;101674.09;5095867;28;20479;-69
2022/07/21 00:25:23;;;;;;;20.38;14.48;;;;;;;20.53;100.00;101666.06;5095201;28;20027;-70
2022/07/21 00:27:48;;;;;;;19.27;14.52;;;;;;;20.64;100.00;101670.41;5116152;28;20039;-69
2022/07/21 00:30:15;;;;;;;16.60;13.93;;;;;;;20.64;100.00;101675.75;5116345;28;20083;-69
2022/07/21 00:32:40;;;;;;;19.17;14.07;;;;;;;20.72;100.00;101680.13;5116281;28;20051;-69
2022/07/21 00:35:08;;;;;;;15.60;13.23;;;;;;;20.77;100.00;101693.47;5098634;28;20056;-69
2022/07/21 00:37:33;;;;;;;17.52;13.82;;;;;;;20.70;100.00;101681.06;5077883;28;20077;-70
2022/07/21 00:39:58;;;;;;;19.10;14.60;;;;;;;20.78;100.00;101679.19;5077463;28;20361;-70
2022/07/21 00:42:27;;;;;;;19.52;14.70;;;;;;;20.59;100.00;101686.53;5095716;28;20024;-69
2022/07/21 00:44:53;;;;;;;20.30;14.68;;;;;;;20.65;100.00;101685.56;5099638;28;20072;-69
2022/07/21 00:47:24;;;;;;;17.15;13.55;;;;;;;20.73;100.00;101670.34;5115928;28;20111;-70
2022/07/21 00:49:49;;;;;;;17.77;14.27;;;;;;;20.76;100.00;101666.75;5101994;28;20030;-69
2022/07/21 00:52:15;;;;;;;17.08;14.15;;;;;;;20.85;100.00;101670.19;5116043;28;20019;-69
2022/07/21 00:54:41;;;;;;;18.08;15.98;;;;;;;20.85;100.00;101680.88;5097490;28;20020;-69
2022/07/21 00:57:07;;;;;;;17.40;13.63;;;;;;;20.76;100.00;101683.66;5095585;28;20595;-70
2022/07/21 00:59:32;;;;;;;19.45;15.48;;;;;;;20.66;100.00;101681.97;5095428;28;20138;-70
2022/07/21 01:01:58;;;;;;;19.70;15.73;;;;;;;20.50;100.00;101678.59;5095378;28;20066;-70
2022/07/21 01:04:23;;;;;;;21.50;16.42;;;;;;;20.42;100.00;101681.34;5099830;28;20023;-69
2022/07/21 01:06:49;;;;;;;19.20;15.98;;;;;;;20.53;100.00;101671.41;5097295;28;20074;-70
2022/07/21 01:09:14;;;;;;;22.38;15.93;;;;;;;20.58;100.00;101665.13;5097424;28;20024;-69
2022/07/21 01:11:40;;;;;;;19.17;15.50;;;;;;;20.47;100.00;101668.81;5094993;28;20459;-69
2022/07/21 01:14:06;;;;;;;19.25;15.93;;;;;;;20.43;100.00;101671.53;5095057;28;20100;-69
2022/07/21 01:16:31;;;;;;;21.55;16.50;;;;;;;20.38;100.00;101668.94;5106242;28;20032;-69
2022/07/21 01:18:57;;;;;;;20.80;15.73;;;;;;;20.45;100.00;101664.41;5100025;28;20032;-69
2022/07/21 01:21:30;;;;;;;25.00;17.48;;;;;;;20.48;100.00;101669.69;5106459;28;20382;-69
2022/07/21 01:23:56;;;;;;;20.85;17.13;;;;;;;20.51;100.00;101654.53;5087850;28;20060;-70
2022/07/21 01:26:22;;;;;;;21.23;15.48;;;;;;;20.55;100.00;101656.25;5106950;28;20030;-69
2022/07/21 01:28:47;;;;;;;26.02;17.98;;;;;;;20.50;100.00;101657.22;5115124;28;20027;-69
2022/07/21 01:31:12;;;;;;;18.73;15.73;;;;;;;20.53;100.00;101663.38;5114869;28;20020;-70
2022/07/21 01:33:38;;;;;;;22.85;17.65;;;;;;;20.51;100.00;101657.19;5114992;28;20033;-69
2022/07/21 01:36:04;;;;;;;18.48;15.70;;;;;;;20.57;100.00;101658.03;5115170;28;20106;-70
2022/07/21 01:44:00;;;;;;;20.40;16.80;;;;;;;20.44;100.00;101644.78;5094777;28;19954;-69
2022/07/21 01:46:26;;;;;;;20.90;16.50;;;;;;;20.43;100.00;101635.00;5098549;28;20035;-69
2022/07/21 01:48:51;;;;;;;23.30;18.33;;;;;;;20.39;100.00;101643.97;5104381;28;20035;-69
2022/07/21 01:51:16;;;;;;;24.00;18.55;;;;;;;20.33;100.00;101644.94;5094225;28;20027;-69
2022/07/21 01:53:42;;;;;;;23.02;17.98;;;;;;;20.45;100.00;101648.34;5094208;28;20495;-71
2022/07/21 01:56:07;;;;;;;25.05;17.88;;;;;;;20.50;100.00;101642.03;5111563;28;20048;-69
2022/07/21 01:58:33;;;;;;;22.27;18.20;;;;;;;20.55;100.00;101639.31;5114074;28;20084;-70
2022/07/21 02:00:58;;;;;;;21.05;16.98;;;;;;;20.59;100.00;101637.50;5114433;28;20376;-69
2022/07/21 02:03:24;;;;;;;24.88;19.73;;;;;;;20.48;100.00;101634.94;5114446;28;20071;-69
2022/07/21 02:05:49;;;;;;;23.23;18.45;;;;;;;20.48;100.00;101633.19;5114236;28;20055;-69
2022/07/21 02:08:15;;;;;;;23.45;18.98;;;;;;;20.50;100.00;101628.69;5104641;28;20031;-70
2022/07/21 02:10:40;;;;;;;23.70;18.38;;;;;;;20.45;100.00;101621.63;5093989;28;20058;-70
2022/07/21 02:13:06;;;;;;;20.63;16.67;;;;;;;20.51;100.00;101619.75;5075671;28;20533;-70
2022/07/21 02:15:32;;;;;;;21.52;17.63;;;;;;;20.52;100.00;101624.22;5093734;28;20024;-70
2022/07/21 02:17:58;;;;;;;24.67;18.90;;;;;;;20.55;100.00;101623.25;5093824;28;20078;-70
2022/07/21 02:20:24;;;;;;;24.20;17.98;;;;;;;20.59;100.00;101635.72;5098490;28;20442;-70
2022/07/21 02:22:50;;;;;;;23.42;18.23;;;;;;;20.57;100.00;101631.28;5086196;28;20039;-70
2022/07/21 02:25:16;;;;;;;25.55;18.63;;;;;;;20.57;100.00;101631.28;5110465;28;20120;-70
2022/07/21 02:27:45;;;;;;;22.05;18.83;;;;;;;20.61;100.00;101622.31;5113918;28;20024;-71
2022/07/21 02:30:13;;;;;;;22.65;18.38;;;;;;;20.64;100.00;101622.28;5113971;28;20054;-70
2022/07/21 02:32:38;;;;;;;24.77;20.13;;;;;;;20.59;100.00;101625.03;5103472;28;20024;-70
2022/07/21 02:35:04;;;;;;;27.33;18.90;;;;;;;20.58;100.00;101625.00;5093402;28;20026;-70
2022/07/21 02:37:30;;;;;;;24.70;20.00;;;;;;;20.58;100.00;101633.94;5103715;28;20424;-70
2022/07/21 02:39:56;;;;;;;26.63;20.48;;;;;;;20.53;100.00;101631.31;5110457;28;20020;-69
2022/07/21 02:42:21;;;;;;;23.45;18.63;;;;;;;20.60;100.00;101631.25;5093748;28;20447;-69
2022/07/21 02:44:46;;;;;;;23.67;19.15;;;;;;;20.55;100.00;101624.16;5093491;28;20033;-71
2022/07/21 02:47:12;;;;;;;25.58;18.83;;;;;;;20.54;100.00;101610.81;5093500;28;20043;-69
2022/07/21 02:49:38;;;;;;;24.25;18.25;;;;;;;20.51;100.00;101603.72;5093283;28;20045;-70
2022/07/21 02:52:04;;;;;;;23.02;18.42;;;;;;;20.55;100.00;101608.13;5075344;28;20028;-69
2022/07/21 02:54:30;;;;;;;22.00;17.80;;;;;;;20.58;100.00;101612.56;5094597;28;20356;-69
2022/07/21 02:56:55;;;;;;;22.38;18.00;;;;;;;20.55;100.00;101608.13;5093135;28;20043;-70
2022/07/21 02:59:20;;;;;;;23.02;18.90;;;;;;;20.47;100.00;101604.66;5075122;28;20056;-71
2022/07/21 03:01:47;;;;;;;25.88;19.27;;;;;;;20.47;100.00;101588.63;5102607;28;20028;-69
2022/07/21 03:04:12;;;;;;;24.08;19.45;;;;;;;20.37;100.00;101597.66;5100229;28;20051;-70
2022/07/21 03:06:37;;;;;;;28.15;20.08;;;;;;;20.34;100.00;101601.25;5104590;28;20112;-69
2022/07/21 03:09:03;;;;;;;29.38;20.15;;;;;;;20.36;100.00;101607.47;5093138;28;20463;-69
2022/07/21 03:11:29;;;;;;;27.90;20.58;;;;;;;20.34;100.00;101605.72;5096037;28;20082;-70
2022/07/21 03:13:54;;;;;;;26.38;21.48;;;;;;;20.38;100.00;101604.78;5099294;28;20024;-69
2022/07/21 03:16:19;;;;;;;29.40;21.27;;;;;;;20.33;100.00;101601.25;5108667;28;20059;-70
2022/07/21 03:18:45;;;;;;;28.02;21.20;;;;;;;20.30;100.00;101602.19;5081046;28;20038;-69
2022/07/21 03:21:10;;;;;;;27.75;20.52;;;;;;;20.30;100.00;101602.19;5106553;28;20425;-70
2022/07/21 03:23:35;;;;;;;26.65;20.67;;;;;;;20.23;100.00;101603.16;5103664;28;20032;-69
2022/07/21 03:26:01;;;;;;;24.70;20.13;;;;;;;20.28;100.00;101608.44;5117377;28;20037;-70
2022/07/21 03:28:26;;;;;;;27.63;19.80;;;;;;;20.27;100.00;101606.69;5117287;28;20019;-70
2022/07/21 03:30:52;;;;;;;28.83;20.35;;;;;;;20.29;100.00;101607.53;5117204;28;20020;-71
2022/07/21 03:33:17;;;;;;;27.17;19.35;;;;;;;20.33;100.00;101601.25;5117453;28;20479;-70
2022/07/21 03:35:43;;;;;;;28.17;19.83;;;;;;;20.26;100.00;101599.56;5108301;28;20042;-70
2022/07/21 03:38:09;;;;;;;29.70;20.52;;;;;;;20.19;100.00;101602.31;5096760;28;20028;-69
2022/07/21 03:40:36;;;;;;;27.75;19.70;;;;;;;20.26;100.00;101604.91;5096688;28;20379;-68
2022/07/21 03:43:04;;;;;;;28.15;20.27;;;;;;;20.20;100.00;101606.75;5096732;28;20536;-69
2022/07/21 03:45:31;;;;;;;25.63;19.25;;;;;;;20.32;100.00;101600.38;5096654;28;20027;-69
2022/07/21 03:47:57;;;;;;;28.23;20.27;;;;;;;20.30;100.00;101601.31;5096513;28;20032;-70
2022/07/21 03:50:23;;;;;;;29.27;21.23;;;;;;;20.34;100.00;101597.69;5096546;28;20024;-69
2022/07/21 03:52:48;;;;;;;24.70;19.88;;;;;;;20.32;100.00;101594.13;5096418;28;20052;-70
2022/07/21 03:55:17;;;;;;;27.73;20.17;;;;;;;20.35;100.00;101594.13;5096990;28;20058;-70
2022/07/21 03:57:48;;;;;;;25.33;20.08;;;;;;;20.38;100.00;101604.78;5078146;28;20028;-70
2022/07/21 04:00:30;;;;;;;25.70;20.23;;;;;;;20.40;100.00;101600.28;5096353;28;20444;-69
2022/07/21 04:02:56;;;;;;;31.38;21.05;;;;;;;20.37;100.00;101608.34;5096331;28;20024;-70
2022/07/21 04:05:22;;;;;;;27.98;21.23;;;;;;;20.38;100.00;101604.78;5108893;28;20069;-69
2022/07/21 04:07:51;;;;;;;29.85;21.48;;;;;;;20.25;100.00;101606.69;5097862;28;20417;-70
2022/07/21 04:10:19;;;;;;;27.45;22.17;;;;;;;20.27;100.00;101606.69;5103884;28;20077;-69
2022/07/21 04:12:45;;;;;;;32.38;22.60;;;;;;;20.26;100.00;101611.13;5077606;28;20024;-69
2022/07/21 04:15:11;;;;;;;29.67;21.85;;;;;;;20.32;100.00;101607.50;5077752;28;20034;-70
2022/07/21 04:17:38;;;;;;;28.83;22.10;;;;;;;20.34;100.00;101608.38;5101919;28;20020;-70
2022/07/21 04:20:05;;;;;;;29.98;23.33;;;;;;;20.30;100.00;101617.34;5103457;28;20020;-71
2022/07/21 04:22:30;;;;;;;33.13;22.80;;;;;;;20.32;100.00;101610.19;5109117;28;20043;-69
2022/07/21 04:24:55;;;;;;;29.75;22.23;;;;;;;20.24;100.00;101617.41;5109411;28;20446;-68
2022/07/21 04:27:21;;;;;;;36.90;23.92;;;;;;;20.24;100.00;101618.31;5109046;28;20032;-70
2022/07/21 04:29:46;;;;;;;31.27;23.75;;;;;;;20.15;100.00;101613.94;5095603;28;20108;-70
2022/07/21 04:32:12;;;;;;;32.78;22.90;;;;;;;20.19;100.00;101615.66;5095631;28;20020;-70
2022/07/21 04:34:37;;;;;;;36.08;23.50;;;;;;;20.24;100.00;101617.41;5109506;28;20098;-68
2022/07/21 04:37:02;;;;;;;29.88;22.85;;;;;;;20.20;100.00;101622.78;5115977;28;20468;-70
2022/07/21 04:39:28;;;;;;;28.88;21.70;;;;;;;20.25;100.00;101613.84;5115833;28;20131;-70
2022/07/21 04:41:54;;;;;;;32.45;22.05;;;;;;;20.06;100.00;101616.69;5095660;28;20490;-69
2022/07/21 04:44:19;;;;;;;27.02;20.88;;;;;;;20.01;100.00;101615.88;5095477;28;20024;-69
2022/07/21 04:46:44;;;;;;;29.70;21.90;;;;;;;19.98;100.00;101613.22;5095248;28;20031;-69
2022/07/21 04:49:10;;;;;;;32.33;21.95;;;;;;;20.03;100.00;101620.28;5095177;28;20027;-70
2022/07/21 04:51:35;;;;;;;26.85;19.58;;;;;;;20.14;100.00;101622.84;5095123;28;20024;-70
2022/07/21 04:54:00;;;;;;;23.60;19.30;;;;;;;20.11;100.00;101620.22;5095278;28;20107;-70
2022/07/21 04:56:26;;;;;;;29.25;18.85;;;;;;;19.99;100.00;101618.53;5096167;28;20392;-70
2022/07/21 04:58:51;;;;;;;28.85;20.63;;;;;;;19.90;100.00;101617.75;5095125;28;20456;-69
2022/07/21 05:01:18;;;;;;;26.42;18.98;;;;;;;19.94;100.00;101619.50;5076839;28;20020;-69
2022/07/21 05:03:43;;;;;;;29.95;18.63;;;;;;;19.96;100.00;101620.38;5094992;28;20136;-69
2022/07/21 05:06:09;;;;;;;34.35;19.55;;;;;;;19.95;100.00;101622.16;5095156;28;20107;-69
2022/07/21 05:08:34;;;;;;;42.40;22.17;;;;;;;19.90;100.00;101623.09;5094813;28;20081;-69
2022/07/21 05:11:00;;;;;;;51.90;24.38;;;;;;;19.88;100.00;101626.66;5094826;28;20368;-69
2022/07/21 05:13:25;;;;;;;44.67;24.75;;;;;;;19.83;100.00;101612.50;5094832;28;20077;-70
2022/07/21 05:15:50;;;;;;;52.95;24.95;;;;;;;19.84;100.00;101614.25;5094660;28;20387;-69
2022/07/21 05:18:16;;;;;;;54.42;25.00;;;;;;;19.81;100.00;101614.28;5094981;28;20494;-70
2022/07/21 05:20:41;;;;;;;51.83;22.75;;;;;;;19.84;100.00;101614.25;5102834;28;20022;-69
2022/07/21 05:23:08;;;;;;;50.05;22.67;;;;;;;19.90;100.00;101617.75;5102886;28;20110;-69
2022/07/21 05:25:35;;;;;;;57.95;22.80;;;;;;;19.82;100.00;101617.84;5113515;28;20019;-70
2022/07/21 05:28:01;;;;;;;60.35;21.25;;;;;;;19.81;100.00;101614.28;5114858;28;20027;-70
2022/07/21 05:30:26;;;;;;;54.92;22.67;;;;;;;19.79;100.00;101613.38;5114814;28;20031;-70
2022/07/21 05:32:51;;;;;;;60.35;21.73;;;;;;;19.78;100.00;101610.72;5113984;28;20028;-70
2022/07/21 05:35:17;;;;;;;47.38;21.35;;;;;;;19.73;100.00;101608.09;5114553;28;20019;-70
2022/07/21 05:37:43;;;;;;;56.95;21.02;;;;;;;19.72;100.00;101614.31;5114659;28;20015;-70
2022/07/21 05:40:09;;;;;;;51.40;22.63;;;;;;;19.62;100.00;101607.31;5114449;28;20497;-70
2022/07/21 05:42:35;;;;;;;51.20;21.33;;;;;;;19.69;100.00;101607.22;5114472;28;20039;-70
2022/07/21 05:45:01;;;;;;;46.00;21.73;;;;;;;19.64;100.00;101611.75;5114578;28;20023;-70
2022/07/21 05:47:29;;;;;;;44.20;19.88;;;;;;;19.69;100.00;101615.22;5114348;28;20035;-70
2022/07/21 05:49:54;;;;;;;41.35;20.98;;;;;;;19.62;100.00;101618.00;5095892;28;20040;-69
2022/07/21 05:52:20;;;;;;;46.42;20.98;;;;;;;19.66;100.00;101611.72;5114257;28;20050;-70
2022/07/21 05:54:45;;;;;;;34.42;18.13;;;;;;;19.62;100.00;101618.00;5112843;28;20532;-69
2022/07/21 05:57:11;;;;;;;39.55;18.13;;;;;;;19.51;100.00;101620.75;5113914;28;20051;-70
2022/07/21 05:59:36;;;;;;;43.97;20.23;;;;;;;19.44;100.00;101617.25;5114274;28;20030;-70
2022/07/21 06:02:01;;;;;;;42.08;20.73;;;;;;;19.45;100.00;101621.69;5095885;28;20118;-69
2022/07/21 06:04:27;;;;;;;34.85;18.05;;;;;;;19.37;100.00;101626.19;5114084;28;20030;-71
2022/07/21 06:06:52;;;;;;;36.13;19.50;;;;;;;19.26;100.00;101622.72;5113952;28;20024;-69
2022/07/21 06:09:18;;;;;;;48.35;21.92;;;;;;;19.11;100.00;101629.91;5113752;28;20019;-70
2022/07/21 06:11:44;;;;;;;42.58;20.92;;;;;;;19.29;100.00;101626.25;5114035;28;20027;-70
2022/07/21 06:14:10;;;;;;;41.95;20.35;;;;;;;19.36;100.00;101627.09;5113923;28;20035;-71
2022/07/21 06:16:35;;;;;;;31.65;18.88;;;;;;;19.23;100.00;101636.97;5113940;28;20024;-69
2022/07/21 06:19:01;;;;;;;23.45;14.60;;;;;;;19.11;100.00;101635.25;5091293;28;20020;-69
2022/07/21 06:21:27;;;;;;;26.33;15.20;;;;;;;19.21;100.00;101642.31;5105329;28;20062;-69
2022/07/21 06:23:52;;;;;;;28.95;16.67;;;;;;;19.17;100.00;101639.69;5100155;28;20505;-69
2022/07/21 06:26:18;;;;;;;32.00;16.30;;;;;;;19.07;100.00;101635.28;5113675;28;20027;-68
2022/07/21 06:28:43;;;;;;;26.20;16.80;;;;;;;19.04;100.00;101630.84;5095409;28;20029;-70
2022/07/21 06:31:09;;;;;;;28.83;17.02;;;;;;;19.01;100.00;101625.53;5113754;28;20023;-69
2022/07/21 06:33:34;;;;;;;25.23;16.27;;;;;;;19.03;100.00;101627.31;5113598;28;20030;-70
2022/07/21 06:35:59;;;;;;;27.65;15.00;;;;;;;19.01;100.00;101630.88;5095396;28;20157;-70
2022/07/21 06:38:25;;;;;;;34.35;17.13;;;;;;;18.96;100.00;101632.69;5113479;28;20057;-69
2022/07/21 06:40:50;;;;;;;26.38;17.55;;;;;;;18.87;100.00;101634.47;5113542;28;20023;-69
2022/07/21 06:43:15;;;;;;;27.10;16.13;;;;;;;18.91;100.00;101639.81;5113499;28;20024;-68
2022/07/21 06:45:41;;;;;;;26.23;17.42;;;;;;;18.84;100.00;101639.84;5113533;28;20061;-69
2022/07/21 06:48:08;;;;;;;28.55;15.68;;;;;;;18.77;100.00;101643.41;5095149;28;20543;-71
2022/07/21 06:50:34;;;;;;;28.65;15.27;;;;;;;18.73;100.00;101646.97;5113481;28;20043;-70
2022/07/21 06:52:59;;;;;;;26.80;16.10;;;;;;;18.61;100.00;101649.69;5113242;28;20026;-70
2022/07/21 06:55:25;;;;;;;23.83;15.70;;;;;;;18.61;100.00;101655.03;5112136;28;20092;-70
2022/07/21 06:57:51;;;;;;;23.80;14.95;;;;;;;18.52;100.00;101646.19;5113376;28;20011;-69
2022/07/21 07:00:17;;;;;;;23.02;15.10;;;;;;;18.48;100.00;101654.19;5095079;28;20387;-68
2022/07/21 07:02:42;;;;;;;19.88;14.88;;;;;;;18.40;100.00;101662.22;5113262;28;20028;-69
2022/07/21 07:05:08;;;;;;;21.50;14.75;;;;;;;18.44;100.00;101663.97;5113344;28;20080;-68
2022/07/21 07:07:33;;;;;;;24.00;15.70;;;;;;;18.46;100.00;101664.88;5113168;28;20501;-69
2022/07/21 07:09:59;;;;;;;22.00;14.30;;;;;;;18.43;100.00;101671.97;5113223;28;20041;-69
2022/07/21 07:12:24;;;;;;;25.10;14.65;;;;;;;18.35;100.00;101672.91;5113045;28;20055;-69
2022/07/21 07:14:50;;;;;;;19.38;13.82;;;;;;;18.31;100.00;101676.47;5113230;28;20027;-69
2022/07/21 07:17:18;;;;;;;18.50;13.27;;;;;;;18.27;100.00;101673.78;5094873;28;20020;-70
2022/07/21 07:19:44;;;;;;;18.30;13.07;;;;;;;18.18;100.00;101675.56;5094894;28;20039;-69
2022/07/21 07:22:09;;;;;;;20.75;13.52;;;;;;;18.20;100.00;101679.13;5108916;28;20518;-69
2022/07/21 07:24:34;;;;;;;17.67;12.93;;;;;;;18.12;100.00;101675.59;5103518;28;20015;-69
2022/07/21 07:27:00;;;;;;;20.83;13.32;;;;;;;18.14;100.00;101668.47;5112859;28;20016;-69
2022/07/21 07:29:25;;;;;;;21.38;14.40;;;;;;;18.15;100.00;101664.03;5113047;28;20035;-70
2022/07/21 07:31:50;;;;;;;25.75;15.82;;;;;;;18.06;100.00;101670.28;5112925;28;20027;-69
2022/07/21 07:34:16;;;;;;;24.90;15.20;;;;;;;18.04;100.00;101666.72;5113026;28;20028;-69
2022/07/21 07:36:41;;;;;;;23.33;16.98;;;;;;;18.00;100.00;101678.25;5112963;28;20023;-69
2022/07/21 07:39:07;;;;;;;22.23;15.63;;;;;;;17.98;100.00;101685.38;5112869;28;20020;-70
2022/07/21 07:41:32;;;;;;;26.38;17.33;;;;;;;18.03;100.00;101675.63;5112805;28;20356;-69
2022/07/21 07:43:59;;;;;;;22.30;15.98;;;;;;;17.94;100.00;101679.16;5112793;28;20034;-69
2022/07/21 07:46:25;;;;;;;23.85;16.55;;;;;;;17.95;100.00;101678.28;5112634;28;20020;-69
2022/07/21 07:48:51;;;;;;;27.02;17.35;;;;;;;17.99;100.00;101680.03;5112685;28;20145;-69
2022/07/21 07:51:16;;;;;;;24.70;15.20;;;;;;;18.02;100.00;101684.47;5094501;28;20053;-70
2022/07/21 07:53:41;;;;;;;21.35;14.02;;;;;;;17.92;100.00;101685.38;5094460;28;20024;-70
2022/07/21 07:56:08;;;;;;;27.02;15.25;;;;;;;17.97;100.00;101680.94;5111934;28;20075;-69
2022/07/21 07:58:33;;;;;;;22.02;14.25;;;;;;;17.91;100.00;101686.25;5097977;28;20028;-72
2022/07/21 08:00:59;;;;;;;21.52;14.43;;;;;;;17.95;100.00;101686.25;5116324;28;20379;-70
2022/07/21 08:03:26;;;;;;;25.35;15.63;;;;;;;17.91;100.00;101683.59;5116336;28;20035;-70
2022/07/21 08:05:53;;;;;;;29.08;16.88;;;;;;;17.91;100.00;101683.59;5116180;28;20051;-71
2022/07/21 08:08:19;;;;;;;24.73;15.60;;;;;;;17.84;100.00;101680.91;5098354;28;20028;-70
2022/07/21 08:10:45;;;;;;;29.42;16.70;;;;;;;17.81;100.00;101680.91;5116047;28;20027;-70
2022/07/21 08:13:16;;;;;;;24.98;15.57;;;;;;;17.75;100.00;101686.22;5097937;28;20034;-71
2022/07/21 08:15:43;;;;;;;25.00;15.55;;;;;;;17.70;100.00;101686.25;5116006;28;20019;-69
2022/07/21 08:18:09;;;;;;;23.45;14.10;;;;;;;17.68;100.00;101682.66;5116145;28;20381;-70
2022/07/21 08:20:35;;;;;;;24.33;15.13;;;;;;;17.68;100.00;101693.31;5080024;28;20103;-70
2022/07/21 08:23:01;;;;;;;25.17;14.10;;;;;;;17.65;100.00;101695.09;5095555;28;20050;-69
2022/07/21 08:25:27;;;;;;;22.88;14.18;;;;;;;17.68;100.00;101690.66;5095355;28;20035;-70
2022/07/21 08:27:52;;;;;;;27.92;16.60;;;;;;;17.74;100.00;101697.75;5115707;28;20031;-71
2022/07/21 08:30:18;;;;;;;28.38;16.33;;;;;;;17.72;100.00;101688.91;5097402;28;20028;-70
2022/07/21 08:32:44;;;;;;;27.13;15.15;;;;;;;17.64;100.00;101691.53;5115661;28;20043;-70
2022/07/21 08:35:10;;;;;;;28.23;15.45;;;;;;;17.60;100.00;101697.75;5115551;28;20053;-71
2022/07/21 08:37:37;;;;;;;28.67;15.73;;;;;;;17.61;100.00;101699.53;5115716;28;20371;-71
2022/07/21 08:40:08;;;;;;;26.65;16.25;;;;;;;17.66;100.00;101704.84;5115674;28;20493;-71
2022/07/21 08:42:34;;;;;;;32.38;18.13;;;;;;;17.69;100.00;101704.88;5115610;28;20030;-72
2022/07/21 08:44:59;;;;;;;30.08;16.48;;;;;;;17.63;100.00;101707.50;5115895;28;20031;-70
2022/07/21 08:47:25;;;;;;;29.58;16.67;;;;;;;17.66;100.00;101700.44;5115420;28;20028;-70
2022/07/21 08:49:51;;;;;;;29.13;15.75;;;;;;;17.61;100.00;101714.63;5115450;28;20024;-71
2022/07/21 08:52:18;;;;;;;33.08;15.52;;;;;;;17.67;100.00;101709.28;5097079;28;20382;-71
2022/07/21 08:54:43;;;;;;;28.85;15.30;;;;;;;17.72;100.00;101709.31;5114943;28;20037;-69
2022/07/21 08:57:09;;;;;;;29.55;14.65;;;;;;;17.79;100.00;101713.75;5115083;28;20131;-70
2022/07/21 08:59:34;;;;;;;24.20;13.52;;;;;;;17.80;100.00;101710.19;5115253;28;20070;-70
2022/07/21 09:01:59;;;;;;;21.33;13.10;;;;;;;17.74;100.00;101703.06;5115340;28;20119;-70
2022/07/21 09:04:31;;;;;;;23.83;12.50;;;;;;;17.75;100.00;101707.53;5115093;28;20057;-70
2022/07/21 09:07:00;;;;;;;22.45;10.35;;;;;;;17.81;100.00;101717.28;5096737;28;20027;-70
2022/07/21 09:09:27;;;;;;;19.30;10.63;;;;;;;17.79;100.00;101709.28;5114026;28;20023;-70
2022/07/21 09:11:54;;;;;;;24.52;10.73;;;;;;;17.84;100.00;101717.31;5115127;28;20028;-70
2022/07/21 09:14:23;;;;;;;19.08;12.02;;;;;;;17.89;100.00;101719.94;5115078;28;20030;-70
2022/07/21 09:16:54;;;;;;;17.40;11.07;;;;;;;17.95;100.00;101720.00;5114832;28;20099;-70
2022/07/21 09:19:21;;;;;;;18.67;10.15;;;;;;;17.96;100.00;101727.09;5106865;28;20024;-71
2022/07/21 09:21:47;;;;;;;15.93;10.18;;;;;;;18.01;100.00;101725.31;5108109;28;20031;-70
2022/07/21 09:24:17;;;;;;;15.32;9.35;;;;;;;17.96;100.00;101727.09;5102011;28;20052;-70
2022/07/21 09:27:00;;;;;;;17.88;9.60;;;;;;;17.99;100.00;101732.44;5114702;28;20555;-70
2022/07/21 09:29:26;;;;;;;11.20;8.30;;;;;;;17.97;100.00;101729.78;5114713;28;20024;-70
2022/07/21 09:31:51;;;;;;;11.98;7.55;;;;;;;18.01;100.00;101735.97;5114620;28;20106;-70
2022/07/21 09:34:19;;;;;;;13.98;7.93;;;;;;;18.05;100.00;101736.84;5114807;28;20459;-70
2022/07/21 09:36:58;;;;;;;6.93;5.65;;;;;;;17.95;100.00;101736.84;5096192;28;20549;-70
2022/07/21 09:39:47;;;;;;;7.40;5.43;;;;;;;17.94;100.00;101740.41;5114727;28;20023;-70
2022/07/21 09:42:22;;;;;;;6.70;4.80;;;;;;;17.99;100.00;101735.09;5114499;28;20057;-70
2022/07/21 09:45:05;;;;;;;6.95;5.38;;;;;;;17.86;100.00;101743.03;5114422;28;20463;-70
2022/07/21 09:47:31;;;;;;;7.15;5.20;;;;;;;17.83;100.00;101743.03;5114449;28;20459;-71
2022/07/21 09:49:58;;;;;;;12.70;5.38;;;;;;;17.70;100.00;101746.56;5108664;28;20102;-70
2022/07/21 09:52:29;;;;;;;9.15;5.82;;;;;;;17.63;100.00;101750.09;5093925;28;20123;-71
2022/07/21 09:54:58;;;;;;;8.63;5.35;;;;;;;17.56;100.00;101740.34;5094837;28;20519;-70
2022/07/21 09:57:24;;;;;;;9.32;5.75;;;;;;;17.49;100.00;101745.63;5093653;28;20044;-70
2022/07/21 09:59:50;;;;;;;7.85;5.30;;;;;;;17.52;100.00;101752.75;5100620;28;20047;-70
2022/07/21 10:02:19;;;;;;;7.88;5.28;;;;;;;17.51;100.00;101751.88;5114167;28;20031;-70
2022/07/21 10:04:54;;;;;;;7.75;5.50;;;;;;;17.44;100.00;101755.38;5114129;28;20023;-70
2022/07/21 10:07:21;;;;;;;10.57;5.25;;;;;;;17.45;100.00;101751.84;5095703;28;20410;-69
2022/07/21 10:09:48;;;;;;;9.98;5.60;;;;;;;17.47;100.00;101755.41;5114062;28;20019;-69
2022/07/21 10:12:14;;;;;;;9.10;5.63;;;;;;;17.44;100.00;101755.38;5114099;28;20028;-70
2022/07/21 10:14:41;;;;;;;10.35;6.20;;;;;;;17.57;100.00;101763.41;5114049;28;20458;-69
2022/07/21 10:17:06;;;;;;;9.55;5.90;;;;;;;17.60;100.00;101761.63;5113844;28;20027;-69
2022/07/21 10:19:39;;;;;;;8.68;6.20;;;;;;;17.62;100.00;101765.19;5104763;28;20399;-68
2022/07/21 10:22:23;;;;;;;9.05;6.47;;;;;;;17.56;100.00;101766.94;5107176;28;20024;-69
2022/07/21 10:24:48;;;;;;;;;;;;;;;17.57;100.00;101763.41;5088503;28;20031;-69
2022/07/21 10:27:14;;;;;;;14.63;6.60;;;;;;;17.65;100.00;101765.19;5113625;28;19923;-69
2022/07/21 10:30:03;;;;;;;10.52;5.82;;;;;;;17.65;100.00;101769.63;5113734;28;20506;-69
2022/07/21 10:32:34;;;;;;;11.18;6.35;;;;;;;17.68;100.00;101769.63;5113729;28;20033;-70
2022/07/21 10:35:21;;;;;;;9.57;6.03;;;;;;;17.78;100.00;101771.41;5113618;28;20095;-69
2022/07/21 10:37:48;;;;;;;16.38;5.53;;;;;;;17.76;100.00;101767.88;5113420;28;20031;-69
2022/07/21 10:40:19;;;;;;;9.80;4.72;;;;;;;17.78;100.00;101767.88;5113466;28;20055;-69
2022/07/21 10:42:45;;;;;;;9.18;4.75;;;;;;;17.84;100.00;101770.56;5095426;28;20034;-70
2022/07/21 10:45:30;;;;;;;10.40;4.70;;;;;;;17.90;100.00;101775.00;5113509;28;20046;-70
2022/07/21 10:47:57;;;;;;;8.18;3.80;;;;;;;17.79;100.00;101778.50;5113361;28;20058;-69
2022/07/21 10:50:37;;;;;;;7.95;3.10;;;;;;;17.83;100.00;101780.28;5113582;28;20506;-69
2022/07/21 10:53:05;;;;;;;5.90;2.90;;;;;;;17.76;100.00;101773.19;5113446;28;20084;-71
2022/07/21 10:55:35;;;;;;;5.53;2.85;;;;;;;17.86;100.00;101779.41;5112620;28;20064;-70
2022/07/21 10:58:32;;;;;;;8.88;2.70;;;;;;;17.86;100.00;101780.31;5113362;28;20479;-70
2022/07/21 11:01:02;;;;;;;4.75;1.98;;;;;;;17.84;100.00;101782.06;5110316;28;20028;-70
2022/07/21 11:03:35;;;;;;;10.00;2.53;;;;;;;17.81;100.00;101781.19;5074957;28;20072;-69
2022/07/21 11:06:09;;;;;;;3.70;2.00;;;;;;;17.78;100.00;101787.38;5093069;28;20028;-70
2022/07/21 11:08:35;;;;;;;12.07;2.17;;;;;;;17.78;100.00;101792.69;5093004;28;20434;-71